Time;durP1;ratioP1;P1;durP2;ratioP2;P2;SDS_P1;SDS_P2;PMS_P1;PMS_P2;Temp;Humidity;BMP_temperature;BMP_pressure;BME280_temperature;BME280_humidity;BME280_pressure;Samples;Min_cycle;Max_cycle;Signal;HPM_P1;HPM_P2
2023/08/12 00:01:06;;;;;;;23.48;7.88;;;23.00;83.20;;;;;;9179620;19;20031;-69
2023/08/12 00:04:16;;;;;;;16.50;7.05;;;23.10;84.10;;;;;;9174710;19;20051;-69
2023/08/12 00:07:24;;;;;;;12.18;6.22;;;23.00;84.50;;;;;;9178018;19;20052;-69
2023/08/12 00:10:31;;;;;;;13.38;6.72;;;23.00;83.40;;;;;;9177998;19;20369;-69
2023/08/12 00:13:37;;;;;;;18.02;6.97;;;23.00;83.70;;;;;;9178583;19;20010;-70
2023/08/12 00:16:44;;;;;;;15.07;6.80;;;22.90;83.40;;;;;;9177003;19;20007;-70
2023/08/12 00:19:52;;;;;;;16.88;6.95;;;23.00;84.10;;;;;;9177756;19;20014;-69
2023/08/12 00:23:03;;;;;;;14.82;6.90;;;23.20;84.40;;;;;;9176568;19;20021;-70
2023/08/12 00:26:08;;;;;;;14.38;6.97;;;22.90;84.30;;;;;;9176915;19;20019;-69
2023/08/12 00:29:16;;;;;;;13.05;5.80;;;22.90;84.20;;;;;;9177925;19;20023;-69
2023/08/12 00:32:24;;;;;;;18.58;6.75;;;22.90;83.80;;;;;;9177312;19;20052;-70
2023/08/12 00:35:31;;;;;;;14.73;6.68;;;22.90;84.40;;;;;;9178050;19;20672;-70
2023/08/12 00:38:39;;;;;;;13.32;6.63;;;22.90;83.70;;;;;;9175961;19;20015;-70
2023/08/12 00:41:47;;;;;;;9.65;6.38;;;23.20;83.70;;;;;;9176571;19;20365;-70
2023/08/12 00:44:52;;;;;;;9.02;6.40;;;22.80;83.90;;;;;;9174623;19;20017;-70
2023/08/12 00:48:00;;;;;;;14.93;6.35;;;22.90;83.90;;;;;;9174144;19;20059;-70
2023/08/12 00:51:08;;;;;;;9.25;5.97;;;22.80;84.70;;;;;;9176958;19;20051;-69
2023/08/12 00:54:20;;;;;;;9.82;6.25;;;22.90;84.70;;;;;;9177186;19;20038;-69
2023/08/12 00:57:25;;;;;;;12.48;5.68;;;22.80;84.80;;;;;;9172214;19;20021;-70
2023/08/12 01:00:33;;;;;;;20.20;6.97;;;22.70;84.90;;;;;;9176175;19;20025;-70
2023/08/12 01:03:40;;;;;;;13.27;6.63;;;22.80;85.10;;;;;;9174664;19;20007;-70
2023/08/12 01:06:47;;;;;;;12.95;6.32;;;22.70;85.80;;;;;;9176535;19;20187;-69
2023/08/12 01:09:55;;;;;;;14.85;7.20;;;22.80;85.70;;;;;;9176119;19;20889;-69
2023/08/12 01:13:12;;;;;;;10.77;6.35;;;22.80;85.70;;;;;;9172597;19;20021;-70
2023/08/12 01:16:20;;;;;;;13.18;6.22;;;22.70;85.20;;;;;;9173864;19;20030;-69
2023/08/12 01:19:35;;;;;;;18.13;7.28;;;22.70;85.30;;;;;;9176135;19;20022;-70
2023/08/12 01:22:41;;;;;;;13.38;6.80;;;22.70;85.50;;;;;;9175688;19;20014;-70
2023/08/12 01:25:52;;;;;;;14.60;6.90;;;22.60;85.00;;;;;;9173907;19;20018;-70
2023/08/12 01:28:58;;;;;;;13.07;7.68;;;22.60;85.00;;;;;;9174457;19;20521;-70
2023/08/12 01:32:14;;;;;;;11.45;6.22;;;22.70;85.60;;;;;;9173582;19;20022;-69
2023/08/12 01:35:23;;;;;;;12.00;6.43;;;22.60;85.10;;;;;;9175682;19;20002;-70
2023/08/12 01:38:35;;;;;;;13.73;6.72;;;22.70;84.90;;;;;;9174898;19;20010;-69
2023/08/12 01:41:43;;;;;;;15.13;6.68;;;22.60;84.80;;;;;;9175534;19;20007;-70
2023/08/12 01:44:51;;;;;;;12.75;5.95;;;22.60;85.50;;;;;;9173139;19;20480;-69
2023/08/12 01:47:57;;;;;;;11.23;6.13;;;22.60;85.10;;;;;;9171528;19;20019;-69
2023/08/12 01:51:05;;;;;;;12.52;6.78;;;22.70;85.40;;;;;;9179627;19;20018;-70
2023/08/12 01:54:10;;;;;;;16.42;6.07;;;22.60;84.90;;;;;;9183975;19;20018;-70
2023/08/12 01:57:20;;;;;;;12.82;6.28;;;22.50;84.40;;;;;;9179947;19;20337;-70
2023/08/12 02:00:25;;;;;;;12.55;6.05;;;22.60;85.50;;;;;;9182541;19;20040;-70
2023/08/12 02:03:33;;;;;;;11.95;6.10;;;22.50;84.90;;;;;;9183520;19;20015;-69
2023/08/12 02:06:38;;;;;;;12.50;6.07;;;22.50;84.60;;;;;;9183285;19;20712;-71
2023/08/12 02:09:46;;;;;;;14.05;7.05;;;22.50;85.10;;;;;;9181252;19;20019;-70
2023/08/12 02:12:53;;;;;;;14.70;6.70;;;22.60;85.00;;;;;;9183558;19;20011;-69
2023/08/12 02:16:01;;;;;;;10.98;6.32;;;22.60;85.90;;;;;;9181184;19;20018;-70
2023/08/12 02:19:06;;;;;;;15.23;6.57;;;22.50;85.40;;;;;;9183308;19;20470;-70
2023/08/12 02:22:14;;;;;;;11.35;6.80;;;22.50;85.80;;;;;;9181559;19;20010;-70
2023/08/12 02:25:19;;;;;;;12.75;6.78;;;22.60;85.80;;;;;;9181090;19;20010;-71
2023/08/12 02:28:29;;;;;;;10.38;6.95;;;22.50;85.80;;;;;;9182915;19;20019;-71
2023/08/12 02:31:36;;;;;;;12.35;6.68;;;22.50;85.30;;;;;;9182209;19;20006;-71
2023/08/12 02:34:44;;;;;;;11.55;6.80;;;22.40;86.00;;;;;;9182522;19;20029;-71
2023/08/12 02:37:50;;;;;;;11.35;6.20;;;22.50;85.50;;;;;;9183481;19;20022;-71
2023/08/12 02:40:58;;;;;;;13.00;6.65;;;22.50;85.60;;;;;;9183188;19;20015;-71
2023/08/12 02:44:06;;;;;;;10.75;6.45;;;22.50;85.50;;;;;;9181996;19;20010;-71
2023/08/12 02:47:13;;;;;;;15.23;7.10;;;22.50;85.30;;;;;;9179782;19;20030;-70
2023/08/12 02:50:19;;;;;;;16.23;7.47;;;22.40;85.90;;;;;;9180279;19;20035;-70
2023/08/12 02:53:27;;;;;;;10.02;6.53;;;22.40;85.70;;;;;;9181845;19;20018;-70
2023/08/12 02:56:32;;;;;;;17.00;8.27;;;22.40;85.90;;;;;;9175214;19;20464;-70
2023/08/12 02:59:42;;;;;;;13.70;7.47;;;22.40;85.90;;;;;;9181660;19;20014;-70
2023/08/12 03:02:47;;;;;;;14.15;7.32;;;22.40;86.50;;;;;;9180210;19;20022;-70
2023/08/12 03:05:55;;;;;;;15.55;7.22;;;22.50;87.10;;;;;;9177022;19;20026;-70
2023/08/12 03:09:00;;;;;;;14.80;7.78;;;22.30;86.40;;;;;;9181505;19;20619;-70
2023/08/12 03:12:09;;;;;;;13.43;8.07;;;22.40;86.80;;;;;;9181192;19;20503;-70
2023/08/12 03:15:17;;;;;;;14.00;8.13;;;22.30;85.90;;;;;;9178604;19;20011;-70
2023/08/12 03:18:25;;;;;;;16.40;8.80;;;22.40;86.50;;;;;;9180912;19;20022;-70
2023/08/12 03:21:31;;;;;;;19.13;9.95;;;22.40;85.80;;;;;;9179165;19;20014;-71
2023/08/12 03:24:38;;;;;;;14.85;8.32;;;22.40;86.20;;;;;;9177872;19;20014;-70
2023/08/12 03:27:44;;;;;;;17.88;8.25;;;22.40;85.60;;;;;;9180116;19;20025;-70
2023/08/12 03:30:57;;;;;;;14.10;9.55;;;22.30;86.30;;;;;;9179663;19;20018;-69
2023/08/12 03:34:03;;;;;;;16.25;9.30;;;22.90;86.70;;;;;;9178363;19;20011;-70
2023/08/12 03:37:12;;;;;;;18.75;10.07;;;22.20;86.00;;;;;;9175823;19;20341;-69
2023/08/12 03:40:19;;;;;;;15.43;10.38;;;22.50;86.40;;;;;;9177575;19;20471;-70
2023/08/12 03:43:27;;;;;;;17.40;10.55;;;22.20;85.90;;;;;;9177441;19;20033;-70
2023/08/12 03:46:34;;;;;;;15.95;10.25;;;22.30;86.10;;;;;;9176660;19;20014;-70
2023/08/12 03:49:42;;;;;;;17.58;10.52;;;22.30;87.00;;;;;;9175426;19;20010;-70
2023/08/12 03:52:48;;;;;;;19.13;10.98;;;22.20;86.80;;;;;;9177585;19;20027;-70
2023/08/12 03:55:55;;;;;;;17.15;10.40;;;22.20;87.30;;;;;;9178792;19;20011;-70
2023/08/12 03:59:01;;;;;;;19.75;10.55;;;22.20;86.30;;;;;;9172814;19;20010;-70
2023/08/12 04:02:11;;;;;;;19.27;12.27;;;22.30;86.90;;;;;;9174585;19;20025;-71
2023/08/12 04:05:16;;;;;;;17.25;11.32;;;22.20;87.00;;;;;;9177391;19;20030;-70
2023/08/12 04:08:25;;;;;;;21.42;11.32;;;22.20;86.90;;;;;;9178584;19;20022;-71
2023/08/12 04:11:31;;;;;;;14.35;10.18;;;22.20;87.10;;;;;;9176373;19;20021;-70
2023/08/12 04:14:40;;;;;;;19.73;11.15;;;22.20;87.40;;;;;;9175694;19;20027;-69
2023/08/12 04:17:48;;;;;;;19.98;11.65;;;22.40;88.00;;;;;;9176195;19;20026;-70
2023/08/12 04:20:56;;;;;;;22.48;11.30;;;22.10;87.50;;;;;;9178026;19;20491;-69
2023/08/12 04:24:02;;;;;;;15.20;11.25;;;22.20;87.10;;;;;;9179016;19;20021;-71
2023/08/12 04:27:09;;;;;;;15.13;11.07;;;22.10;87.90;;;;;;9175685;19;20014;-70
2023/08/12 04:30:19;;;;;;;17.85;11.52;;;22.20;87.70;;;;;;9177284;19;20014;-70
2023/08/12 04:33:29;;;;;;;13.65;10.70;;;22.20;88.00;;;;;;9176041;19;20014;-70
2023/08/12 04:36:35;;;;;;;18.45;11.85;;;22.10;88.00;;;;;;9175683;19;20018;-70
2023/08/12 04:39:47;;;;;;;18.98;11.10;;;22.10;87.70;;;;;;9175418;19;20018;-71
2023/08/12 04:42:52;;;;;;;14.55;10.38;;;22.10;87.80;;;;;;9175248;19;20015;-70
2023/08/12 04:46:00;;;;;;;18.67;10.52;;;22.10;87.80;;;;;;9176551;19;20372;-70
2023/08/12 04:49:09;;;;;;;20.27;10.52;;;22.10;87.80;;;;;;9173473;19;20011;-70
2023/08/12 04:52:16;;;;;;;13.63;9.20;;;22.00;88.10;;;;;;9175337;19;20015;-70
2023/08/12 04:55:22;;;;;;;17.42;9.98;;;22.10;87.80;;;;;;9174880;19;20051;-70
2023/08/12 04:58:29;;;;;;;13.77;8.75;;;22.00;88.60;;;;;;9170392;19;20018;-70
2023/08/12 05:01:35;;;;;;;17.15;9.50;;;22.10;89.00;;;;;;9176236;19;20022;-69
2023/08/12 05:04:50;;;;;;;17.67;9.35;;;22.00;88.50;;;;;;9173727;19;20018;-70
2023/08/12 05:07:56;;;;;;;12.20;8.98;;;22.00;88.70;;;;;;9172415;19;20063;-70
2023/08/12 05:11:04;;;;;;;19.45;8.60;;;22.10;88.70;;;;;;9173452;19;20041;-70
2023/08/12 05:14:09;;;;;;;12.25;8.02;;;22.10;88.20;;;;;;9175910;19;20041;-70
2023/08/12 05:17:16;;;;;;;14.60;8.32;;;21.90;88.50;;;;;;9175833;19;20021;-71
2023/08/12 05:20:25;;;;;;;14.80;8.75;;;22.00;88.70;;;;;;9170577;19;20106;-70
2023/08/12 05:23:32;;;;;;;20.10;9.73;;;22.00;88.90;;;;;;9176110;19;20115;-70
2023/08/12 05:26:38;;;;;;;21.08;8.70;;;22.00;89.20;;;;;;9177002;19;20015;-70
2023/08/12 05:29:45;;;;;;;13.70;8.32;;;22.00;89.00;;;;;;9182860;19;20495;-70
2023/08/12 05:32:50;;;;;;;11.38;7.30;;;21.90;88.90;;;;;;9185717;19;20022;-70
2023/08/12 05:36:00;;;;;;;19.02;9.48;;;22.00;89.20;;;;;;9187165;19;20018;-70
2023/08/12 05:39:09;;;;;;;20.00;9.35;;;22.00;88.90;;;;;;9185293;19;20032;-70
2023/08/12 05:42:16;;;;;;;13.90;7.72;;;22.00;88.80;;;;;;9186386;19;20021;-70
2023/08/12 05:45:22;;;;;;;17.38;8.27;;;22.00;89.00;;;;;;9186632;19;20042;-70
2023/08/12 05:48:29;;;;;;;13.13;8.60;;;22.00;88.20;;;;;;9184431;19;20017;-70
2023/08/12 05:51:41;;;;;;;14.52;8.95;;;22.00;88.20;;;;;;9185956;19;20038;-69
2023/08/12 05:54:48;;;;;;;;;;;22.30;88.50;;;;;;9185202;19;20019;-71
2023/08/12 05:57:53;;;;;;;15.95;8.98;;;22.00;88.80;;;;;;9181912;19;19952;-70
2023/08/12 06:01:01;;;;;;;13.73;8.38;;;22.00;88.60;;;;;;9186155;19;20018;-70
2023/08/12 06:04:06;;;;;;;19.08;8.63;;;22.00;89.10;;;;;;9185411;19;20130;-71
2023/08/12 06:07:16;;;;;;;13.38;7.97;;;22.00;89.80;;;;;;9183180;19;20026;-71
2023/08/12 06:10:24;;;;;;;15.50;8.07;;;22.10;89.40;;;;;;9185072;19;20006;-71
2023/08/12 06:13:31;;;;;;;15.60;8.02;;;22.10;89.50;;;;;;9185290;19;20019;-70
2023/08/12 06:16:37;;;;;;;13.35;8.10;;;22.10;89.40;;;;;;9184751;19;20074;-71
2023/08/12 06:19:44;;;;;;;15.30;8.30;;;22.10;89.50;;;;;;9185117;19;20023;-71
2023/08/12 06:22:52;;;;;;;11.73;8.07;;;22.10;89.50;;;;;;9183565;19;20664;-71
2023/08/12 06:26:00;;;;;;;13.77;7.68;;;22.20;89.90;;;;;;9182565;19;20018;-71
2023/08/12 06:29:05;;;;;;;15.57;7.65;;;22.20;89.80;;;;;;9182841;19;20349;-72
2023/08/12 06:32:14;;;;;;;23.13;9.13;;;22.50;90.20;;;;;;9184578;19;20015;-71
2023/08/12 06:35:20;;;;;;;15.70;7.70;;;22.30;90.00;;;;;;9183693;19;20037;-71
2023/08/12 06:38:29;;;;;;;20.88;8.65;;;22.30;89.50;;;;;;9182595;19;20014;-72
2023/08/12 06:41:35;;;;;;;13.55;7.63;;;22.30;89.20;;;;;;9184568;19;20476;-70
2023/08/12 06:44:42;;;;;;;15.48;8.40;;;22.30;89.30;;;;;;9183555;19;20023;-71
2023/08/12 06:47:47;;;;;;;16.13;8.23;;;22.40;89.20;;;;;;9180041;19;20771;-71
2023/08/12 06:50:56;;;;;;;16.23;8.73;;;22.40;89.80;;;;;;9190814;19;20010;-73
2023/08/12 06:54:04;;;;;;;20.58;9.00;;;22.30;89.80;;;;;;9197013;19;20010;-73
2023/08/12 06:57:12;;;;;;;21.15;8.82;;;22.40;89.90;;;;;;9186151;19;20015;-71
2023/08/12 07:00:17;;;;;;;24.00;9.65;;;22.30;89.40;;;;;;9190864;19;20011;-73
2023/08/12 07:03:25;;;;;;;18.17;8.27;;;22.30;89.20;;;;;;9186933;19;20018;-72
2023/08/12 07:06:30;;;;;;;20.08;7.82;;;22.30;89.10;;;;;;9186860;19;20493;-71
2023/08/12 07:09:41;;;;;;;16.92;8.57;;;22.40;89.50;;;;;;9183649;19;20026;-72
2023/08/12 07:12:47;;;;;;;17.08;8.65;;;22.30;89.80;;;;;;9188935;19;20015;-71
2023/08/12 07:15:54;;;;;;;18.40;8.70;;;22.30;89.50;;;;;;9184221;19;20021;-70
2023/08/12 07:18:59;;;;;;;15.90;8.75;;;22.30;89.60;;;;;;9182843;19;20015;-71
2023/08/12 07:22:07;;;;;;;15.02;8.30;;;22.40;90.00;;;;;;9183261;19;20029;-72
2023/08/12 07:25:15;;;;;;;18.70;9.98;;;22.40;89.60;;;;;;9182065;19;20043;-72
2023/08/12 07:28:23;;;;;;;20.67;9.45;;;22.20;89.60;;;;;;9179299;19;20025;-71
2023/08/12 07:31:28;;;;;;;12.85;8.35;;;22.40;89.70;;;;;;9182177;19;20504;-71
2023/08/12 07:34:36;;;;;;;20.48;9.20;;;22.30;89.90;;;;;;9182086;19;20014;-69
2023/08/12 07:37:44;;;;;;;20.40;9.65;;;22.30;89.90;;;;;;9182095;19;20014;-70
2023/08/12 07:40:54;;;;;;;17.83;9.27;;;22.30;90.10;;;;;;9182614;19;20015;-71
2023/08/12 07:44:00;;;;;;;17.10;8.77;;;22.30;90.10;;;;;;9181350;19;20010;-69
2023/08/12 07:47:07;;;;;;;21.20;10.07;;;22.20;90.00;;;;;;9178329;19;20014;-70
2023/08/12 07:50:13;;;;;;;15.10;9.10;;;22.20;89.90;;;;;;9180634;19;20014;-69
2023/08/12 07:53:20;;;;;;;15.68;10.05;;;22.20;90.00;;;;;;9181300;19;20033;-70
2023/08/12 07:56:28;;;;;;;21.23;10.88;;;22.10;90.40;;;;;;9177505;19;20015;-69
2023/08/12 07:59:35;;;;;;;19.95;10.25;;;22.20;90.50;;;;;;9181078;19;20026;-72
2023/08/12 08:02:41;;;;;;;20.08;11.63;;;22.10;90.40;;;;;;9181000;19;20025;-70
2023/08/12 08:05:48;;;;;;;21.85;10.85;;;22.10;90.20;;;;;;9180865;19;20021;-69
2023/08/12 08:08:53;;;;;;;23.08;10.82;;;22.10;90.50;;;;;;9177046;19;20073;-70
2023/08/12 08:12:07;;;;;;;21.70;11.85;;;22.10;90.50;;;;;;9181340;19;20014;-70
2023/08/12 08:15:12;;;;;;;19.55;11.30;;;22.00;90.20;;;;;;9180719;19;20473;-70
2023/08/12 08:18:19;;;;;;;15.93;11.05;;;22.00;90.40;;;;;;9180286;19;20033;-70
2023/08/12 08:21:25;;;;;;;19.08;10.38;;;22.10;90.30;;;;;;9179710;19;20026;-70
2023/08/12 08:24:32;;;;;;;16.75;10.63;;;22.10;90.50;;;;;;9179990;19;20014;-70
2023/08/12 08:27:40;;;;;;;20.75;11.38;;;22.00;90.90;;;;;;9179390;19;20039;-70
2023/08/12 08:30:50;;;;;;;19.25;11.77;;;22.00;90.70;;;;;;9179884;19;20026;-70
2023/08/12 08:33:56;;;;;;;18.85;10.00;;;22.00;90.50;;;;;;9179167;19;20044;-69
2023/08/12 08:37:06;;;;;;;24.23;11.25;;;22.00;90.70;;;;;;9176527;19;20078;-69
2023/08/12 08:40:13;;;;;;;15.25;10.63;;;22.00;90.30;;;;;;9177620;19;20099;-68
2023/08/12 08:43:24;;;;;;;18.98;10.52;;;22.00;90.50;;;;;;9177773;19;20052;-68
2023/08/12 08:46:30;;;;;;;21.05;10.63;;;21.90;90.30;;;;;;9179011;19;20020;-69
2023/08/12 08:49:38;;;;;;;13.70;9.60;;;22.00;90.50;;;;;;9175155;19;20023;-70
2023/08/12 08:52:44;;;;;;;17.88;9.88;;;22.00;90.30;;;;;;9179164;19;20017;-70
2023/08/12 08:55:52;;;;;;;17.70;9.77;;;22.00;90.60;;;;;;9179072;19;20866;-69
2023/08/12 08:59:07;;;;;;;13.90;8.75;;;22.00;90.40;;;;;;9173369;19;20026;-69
2023/08/12 09:02:19;;;;;;;13.15;8.13;;;22.00;90.50;;;;;;9178970;19;20014;-70
2023/08/12 09:05:26;;;;;;;13.25;7.53;;;22.00;90.50;;;;;;9177952;19;20019;-69
2023/08/12 09:08:34;;;;;;;13.73;8.57;;;22.00;90.60;;;;;;9177633;19;20015;-70
2023/08/12 09:11:41;;;;;;;14.50;7.47;;;22.10;90.60;;;;;;9177184;19;20015;-70
2023/08/12 09:14:51;;;;;;;10.10;6.70;;;22.00;90.80;;;;;;9178447;19;20015;-70
2023/08/12 09:17:56;;;;;;;9.80;6.72;;;22.00;90.60;;;;;;9177892;19;20503;-70
2023/08/12 09:21:04;;;;;;;10.93;7.38;;;22.10;90.20;;;;;;9178360;19;20014;-70
2023/08/12 09:24:11;;;;;;;13.43;7.55;;;22.10;90.60;;;;;;9178419;19;20048;-70
2023/08/12 09:27:20;;;;;;;14.82;8.60;;;22.10;90.60;;;;;;9177919;19;20018;-70
2023/08/12 09:30:31;;;;;;;10.45;7.03;;;22.00;90.50;;;;;;9175374;19;20051;-70
2023/08/12 09:33:42;;;;;;;10.70;7.57;;;22.10;90.50;;;;;;9177381;19;20011;-70
2023/08/12 09:36:47;;;;;;;11.95;6.20;;;22.20;90.60;;;;;;9175472;19;20875;-71
2023/08/12 09:39:55;;;;;;;11.25;6.45;;;22.00;90.70;;;;;;9175913;19;20006;-70
2023/08/12 09:43:00;;;;;;;9.35;6.45;;;22.10;90.60;;;;;;9177578;19;20021;-70
2023/08/12 09:46:14;;;;;;;8.52;6.30;;;22.10;90.60;;;;;;9175552;19;20018;-70
2023/08/12 09:49:20;;;;;;;8.20;5.85;;;22.20;90.70;;;;;;9175425;19;20030;-70
2023/08/12 09:52:27;;;;;;;6.78;5.40;;;22.20;90.70;;;;;;9176445;19;20015;-71
2023/08/12 09:55:37;;;;;;;8.18;5.68;;;22.30;90.90;;;;;;9177011;19;20067;-71
2023/08/12 09:58:45;;;;;;;10.93;6.22;;;22.10;91.00;;;;;;9170638;19;20029;-70
2023/08/12 10:01:55;;;;;;;8.07;6.05;;;22.10;91.40;;;;;;9174553;19;20507;-71
2023/08/12 10:05:03;;;;;;;7.97;6.10;;;22.00;91.40;;;;;;9175975;19;20014;-70
2023/08/12 10:08:10;;;;;;;7.25;4.90;;;22.10;91.10;;;;;;9176181;19;20052;-71
2023/08/12 10:11:18;;;;;;;7.05;4.93;;;22.20;91.20;;;;;;9179021;19;20022;-71
2023/08/12 10:14:24;;;;;;;6.93;5.40;;;22.20;91.00;;;;;;9183747;19;20475;-71
2023/08/12 10:17:36;;;;;;;7.60;5.15;;;22.20;90.90;;;;;;9185394;19;20029;-71
2023/08/12 10:20:48;;;;;;;7.88;5.75;;;22.40;91.00;;;;;;9185021;19;20010;-71
2023/08/12 10:23:56;;;;;;;9.70;5.85;;;22.30;91.10;;;;;;9185230;19;20018;-70
2023/08/12 10:27:02;;;;;;;10.10;6.70;;;22.40;91.40;;;;;;9185475;19;20011;-70
2023/08/12 10:30:11;;;;;;;8.32;6.05;;;22.40;91.60;;;;;;9182855;19;20015;-70
2023/08/12 10:33:19;;;;;;;6.80;5.30;;;22.50;91.70;;;;;;9183542;19;20113;-72
2023/08/12 10:36:28;;;;;;;6.93;5.47;;;22.60;91.50;;;;;;9181836;19;20014;-71
2023/08/12 10:39:35;;;;;;;5.82;4.80;;;22.60;91.50;;;;;;9184365;19;20078;-70
2023/08/12 10:42:44;;;;;;;6.00;4.60;;;22.80;91.50;;;;;;9184263;19;20260;-70
2023/08/12 10:45:51;;;;;;;5.18;4.25;;;23.00;91.20;;;;;;9184396;19;20483;-70
2023/08/12 10:49:07;;;;;;;5.93;4.45;;;22.90;91.20;;;;;;9181501;19;20022;-71
2023/08/12 10:52:22;;;;;;;;;;;23.10;91.20;;;;;;9183401;19;20018;-70
2023/08/12 10:55:30;;;;;;;5.53;3.33;;;23.10;90.70;;;;;;9183712;19;19933;-71
2023/08/12 10:58:37;;;;;;;6.05;2.70;;;23.20;90.80;;;;;;9179399;19;20011;-71
2023/08/12 11:01:45;;;;;;;2.45;1.90;;;23.40;91.00;;;;;;9183728;19;20030;-71
2023/08/12 11:04:58;;;;;;;2.03;1.50;;;23.20;90.70;;;;;;9183057;19;20472;-71
2023/08/12 11:08:09;;;;;;;1.70;1.60;;;23.30;90.90;;;;;;9183851;19;20019;-71
2023/08/12 11:11:22;;;;;;;1.92;1.50;;;23.20;90.80;;;;;;9180450;19;20052;-70
2023/08/12 11:14:30;;;;;;;1.30;1.20;;;23.20;91.00;;;;;;9183238;19;20530;-70
2023/08/12 11:17:37;;;;;;;1.33;1.23;;;23.30;91.00;;;;;;9183663;19;20023;-70
2023/08/12 11:20:51;;;;;;;2.28;1.40;;;23.20;90.90;;;;;;9182952;19;20464;-71
2023/08/12 11:23:58;;;;;;;1.40;1.30;;;23.30;90.60;;;;;;9179894;19;20017;-70
2023/08/12 11:27:05;;;;;;;1.30;1.13;;;23.40;90.80;;;;;;9182564;19;20014;-70
2023/08/12 11:30:12;;;;;;;2.13;1.30;;;23.40;90.90;;;;;;9180844;19;20011;-70
2023/08/12 11:33:21;;;;;;;2.38;1.20;;;23.40;90.70;;;;;;9179765;19;20360;-70
2023/08/12 11:36:31;;;;;;;2.80;1.45;;;23.40;90.70;;;;;;9182470;19;20119;-70
2023/08/12 11:39:39;;;;;;;1.48;1.35;;;23.40;90.90;;;;;;9181051;19;20033;-70
2023/08/12 11:42:46;;;;;;;1.48;1.35;;;23.50;90.60;;;;;;9181781;19;20011;-70
2023/08/12 11:45:54;;;;;;;1.30;1.20;;;23.60;90.90;;;;;;9182223;19;20014;-70
2023/08/12 11:48:59;;;;;;;2.60;1.75;;;23.60;91.00;;;;;;9179436;19;20015;-70
2023/08/12 11:52:10;;;;;;;1.70;1.10;;;23.50;90.80;;;;;;9181511;19;20014;-70
2023/08/12 11:55:17;;;;;;;1.73;1.10;;;23.60;91.20;;;;;;9181674;19;20030;-70
2023/08/12 11:58:25;;;;;;;12.10;1.10;;;23.70;91.10;;;;;;9175381;19;20021;-70
2023/08/12 12:01:48;;;;;;;5.57;1.58;;;23.60;91.20;;;;;;9179588;19;20014;-70
2023/08/12 12:04:55;;;;;;;0.80;0.80;;;23.70;90.90;;;;;;9179082;19;20107;-69
2023/08/12 12:08:05;;;;;;;1.10;1.00;;;23.70;90.80;;;;;;9180529;19;20014;-70
2023/08/12 12:11:13;;;;;;;0.90;0.60;;;23.80;91.10;;;;;;9178798;19;20368;-69
2023/08/12 12:14:18;;;;;;;2.15;0.65;;;23.80;90.90;;;;;;9178541;19;20131;-69
2023/08/12 12:17:26;;;;;;;0.43;0.43;;;23.90;90.90;;;;;;9180362;19;20022;-69
2023/08/12 12:20:31;;;;;;;0.50;0.50;;;24.00;91.00;;;;;;9178032;19;20029;-70
2023/08/12 12:23:41;;;;;;;1.08;0.70;;;24.00;91.00;;;;;;9179918;19;20022;-70
2023/08/12 12:26:47;;;;;;;0.70;0.60;;;23.90;91.00;;;;;;9178082;19;20014;-71
2023/08/12 12:29:54;;;;;;;1.02;0.70;;;24.00;90.80;;;;;;9179651;19;20018;-70
2023/08/12 12:32:59;;;;;;;1.35;0.90;;;24.00;91.00;;;;;;9179753;19;20020;-69
2023/08/12 12:36:07;;;;;;;2.30;0.80;;;24.20;90.90;;;;;;9178876;19;20018;-71
2023/08/12 12:39:21;;;;;;;0.85;0.55;;;24.20;91.10;;;;;;9178345;19;20090;-71
2023/08/12 12:42:28;;;;;;;0.93;0.73;;;24.50;90.90;;;;;;9179458;19;20014;-70
2023/08/12 12:45:33;;;;;;;1.85;0.90;;;24.60;90.80;;;;;;9164247;19;20026;-70
2023/08/12 12:48:41;;;;;;;3.60;0.70;;;24.80;90.50;;;;;;9166782;19;20014;-70
2023/08/12 12:51:46;;;;;;;1.13;0.68;;;24.90;90.10;;;;;;9171667;19;20053;-70
2023/08/12 12:54:57;;;;;;;2.83;0.75;;;25.10;90.00;;;;;;9173203;19;20018;-70
2023/08/12 12:58:02;;;;;;;3.00;0.80;;;25.20;90.10;;;;;;9164715;19;20011;-70
2023/08/12 13:01:10;;;;;;;1.95;1.15;;;25.40;90.00;;;;;;9168965;19;20018;-70
2023/08/12 13:04:15;;;;;;;3.70;1.40;;;25.50;89.80;;;;;;9167735;19;20026;-70
2023/08/12 13:07:23;;;;;;;3.30;1.20;;;25.60;88.60;;;;;;9167071;19;20510;-70
2023/08/12 13:10:30;;;;;;;2.88;1.20;;;25.60;88.50;;;;;;9165577;19;20014;-70
2023/08/12 13:13:38;;;;;;;3.85;1.60;;;25.70;87.80;;;;;;9168249;19;20014;-71
2023/08/12 13:16:43;;;;;;;5.90;1.58;;;25.70;87.30;;;;;;9168054;19;20022;-71
2023/08/12 13:19:50;;;;;;;3.00;1.20;;;25.70;87.20;;;;;;9171214;19;20491;-72
2023/08/12 13:22:56;;;;;;;3.75;1.35;;;25.70;87.10;;;;;;9172303;19;20011;-70
2023/08/12 13:26:06;;;;;;;4.43;1.40;;;25.60;86.20;;;;;;9171706;19;20030;-71
2023/08/12 13:29:11;;;;;;;5.45;1.83;;;25.70;86.30;;;;;;9171664;19;20056;-71
2023/08/12 13:32:18;;;;;;;3.78;1.60;;;25.80;86.40;;;;;;9167408;19;20014;-70
2023/08/12 13:35:24;;;;;;;4.85;1.60;;;25.70;86.50;;;;;;9171845;19;20737;-70
2023/08/12 13:38:31;;;;;;;6.72;1.85;;;26.00;85.30;;;;;;9171373;19;20019;-70
2023/08/12 13:41:39;;;;;;;8.73;1.55;;;25.80;85.10;;;;;;9172073;19;20044;-70
2023/08/12 13:44:50;;;;;;;7.55;1.33;;;25.80;84.40;;;;;;9170918;19;20025;-71
2023/08/12 13:47:55;;;;;;;5.22;1.70;;;25.80;85.20;;;;;;9176372;19;20014;-70
2023/08/12 13:51:03;;;;;;;4.25;1.50;;;25.80;84.60;;;;;;9179048;19;20022;-70
2023/08/12 13:54:08;;;;;;;4.32;1.50;;;25.90;84.10;;;;;;9180627;19;20014;-71
2023/08/12 13:57:18;;;;;;;3.78;1.40;;;25.80;83.50;;;;;;9174595;19;20010;-71
2023/08/12 14:00:24;;;;;;;10.68;1.60;;;26.00;83.70;;;;;;9177330;19;20025;-71
2023/08/12 14:03:35;;;;;;;4.70;1.48;;;25.90;83.80;;;;;;9179827;19;20040;-71
2023/08/12 14:06:41;;;;;;;4.38;1.50;;;25.90;83.30;;;;;;9178920;19;20018;-70
2023/08/12 14:09:48;;;;;;;9.13;1.88;;;26.00;82.70;;;;;;9183607;19;20025;-70
2023/08/12 14:12:57;;;;;;;5.10;1.42;;;26.00;81.70;;;;;;9179752;19;20018;-71
2023/08/12 14:16:04;;;;;;;4.28;1.30;;;26.10;82.20;;;;;;9184545;19;20007;-70
2023/08/12 14:19:09;;;;;;;3.38;1.33;;;26.20;81.50;;;;;;9185397;19;20025;-70
2023/08/12 14:22:17;;;;;;;3.70;1.40;;;26.20;81.00;;;;;;9182406;19;20022;-69
2023/08/12 14:25:22;;;;;;;4.28;1.52;;;26.20;81.20;;;;;;9185210;19;20022;-70
2023/08/12 14:28:32;;;;;;;3.90;1.58;;;26.20;81.30;;;;;;9184591;19;20025;-70
2023/08/12 14:31:37;;;;;;;6.13;1.60;;;26.20;80.60;;;;;;9183413;19;20021;-71
2023/08/12 14:34:46;;;;;;;3.40;1.48;;;26.30;80.40;;;;;;9184591;19;20033;-71
2023/08/12 14:37:51;;;;;;;6.07;1.60;;;26.30;80.90;;;;;;9184547;19;20018;-70
2023/08/12 14:40:58;;;;;;;9.20;1.80;;;26.30;80.80;;;;;;9178668;19;20011;-70
2023/08/12 14:44:07;;;;;;;5.85;1.63;;;26.20;80.50;;;;;;9178612;19;20007;-70
2023/08/12 14:47:14;;;;;;;8.02;1.85;;;26.20;79.10;;;;;;9177110;19;20033;-70
2023/08/12 14:50:20;;;;;;;8.32;1.85;;;26.30;79.40;;;;;;9177891;19;20018;-70
2023/08/12 14:53:28;;;;;;;2.80;1.30;;;26.30;78.80;;;;;;9174389;19;20022;-70
2023/08/12 14:56:33;;;;;;;6.25;1.60;;;26.20;79.30;;;;;;9172634;19;20010;-71
2023/08/12 14:59:43;;;;;;;9.88;1.85;;;26.30;78.80;;;;;;9177197;19;20488;-70
2023/08/12 15:02:48;;;;;;;8.20;1.60;;;26.30;78.90;;;;;;9177095;19;20025;-70
2023/08/12 15:06:03;;;;;;;7.10;1.73;;;26.30;79.40;;;;;;9176348;19;20025;-71
2023/08/12 15:09:09;;;;;;;10.13;2.20;;;26.30;79.00;;;;;;9177570;19;20354;-70
2023/08/12 15:12:17;;;;;;;7.60;1.63;;;26.20;79.30;;;;;;9175429;19;20032;-71
2023/08/12 15:15:24;;;;;;;11.82;1.65;;;26.10;78.40;;;;;;9177042;19;20750;-70
2023/08/12 15:18:32;;;;;;;7.32;1.75;;;26.10;78.50;;;;;;9172600;19;20033;-70
2023/08/12 15:21:37;;;;;;;4.05;1.48;;;26.10;78.50;;;;;;9176556;19;20014;-71
2023/08/12 15:24:44;;;;;;;5.95;2.00;;;26.20;78.30;;;;;;9176960;19;20025;-70
2023/08/12 15:27:50;;;;;;;6.93;1.73;;;26.00;77.10;;;;;;9175958;19;21020;-70
2023/08/12 15:30:59;;;;;;;10.63;1.95;;;26.00;77.80;;;;;;9175622;19;20361;-69
2023/08/12 15:34:05;;;;;;;5.70;1.52;;;26.00;77.10;;;;;;9176037;19;20025;-70
2023/08/12 15:37:13;;;;;;;7.55;1.55;;;26.10;77.30;;;;;;9173904;19;20013;-70
2023/08/12 15:40:19;;;;;;;7.07;1.73;;;26.10;77.70;;;;;;9175232;19;20074;-70
2023/08/12 15:43:27;;;;;;;4.65;1.70;;;26.10;77.50;;;;;;9175553;19;20018;-70
2023/08/12 15:46:35;;;;;;;10.48;1.92;;;26.10;77.50;;;;;;9171569;19;20017;-72
2023/08/12 15:49:42;;;;;;;6.03;1.55;;;26.10;77.40;;;;;;9165445;19;20605;-68
2023/08/12 15:52:48;;;;;;;8.82;1.52;;;26.10;76.70;;;;;;9166379;19;20885;-68
2023/08/12 15:55:55;;;;;;;7.97;1.75;;;26.00;77.10;;;;;;9173434;19;20025;-69
2023/08/12 15:59:01;;;;;;;4.90;1.42;;;26.00;76.50;;;;;;9164061;19;20018;-68
2023/08/12 16:02:11;;;;;;;6.78;1.80;;;26.00;76.70;;;;;;9167194;19;20505;-68
2023/08/12 16:05:16;;;;;;;11.27;1.95;;;25.90;76.50;;;;;;9161994;19;20053;-68
2023/08/12 16:08:24;;;;;;;6.22;1.85;;;25.80;76.60;;;;;;9165857;19;20018;-64